createdAt,value
2017-08-20T00:00:03.376Z,15.99
2017-08-20T00:01:03.387Z,15.94
2017-08-20T00:02:03.399Z,15.93
2017-08-20T00:03:03.416Z,15.88
2017-08-20T00:04:03.427Z,15.84
2017-08-20T00:05:03.441Z,15.88
2017-08-20T00:06:03.457Z,15.85
2017-08-20T00:07:03.469Z,15.86
2017-08-20T00:08:03.489Z,15.86
2017-08-20T00:09:03.497Z,15.81
2017-08-20T00:10:03.510Z,15.79
2017-08-20T00:11:03.525Z,15.82
2017-08-20T00:12:03.535Z,15.78
2017-08-20T00:13:03.550Z,15.79
2017-08-20T00:14:03.564Z,15.76
2017-08-20T00:15:03.579Z,15.84
2017-08-20T00:16:03.589Z,15.78
2017-08-20T00:17:03.604Z,15.74
2017-08-20T00:18:03.618Z,15.74
2017-08-20T00:19:03.631Z,15.75
2017-08-20T00:20:03.644Z,15.63
2017-08-20T00:21:03.659Z,15.72
2017-08-20T00:22:03.673Z,15.63
2017-08-20T00:23:03.684Z,15.61
2017-08-20T00:24:03.699Z,15.59
2017-08-20T00:25:03.713Z,15.57
2017-08-20T00:26:03.727Z,15.60
2017-08-20T00:27:03.744Z,15.52
2017-08-20T00:28:03.753Z,15.60
2017-08-20T00:29:03.768Z,15.57
2017-08-20T00:30:03.779Z,15.46
2017-08-20T00:31:03.794Z,15.51
2017-08-20T00:32:03.807Z,15.45
2017-08-20T00:33:03.819Z,15.41
2017-08-20T00:34:03.836Z,15.45
2017-08-20T00:35:03.849Z,15.42
2017-08-20T00:36:03.862Z,15.41
2017-08-20T00:37:03.875Z,15.41
2017-08-20T00:38:03.888Z,15.33
2017-08-20T00:39:03.901Z,15.27
2017-08-20T00:40:03.916Z,15.33
2017-08-20T00:41:03.929Z,15.33
2017-08-20T00:42:03.943Z,15.27
2017-08-20T00:43:03.954Z,15.21
2017-08-20T00:44:03.966Z,15.20
2017-08-20T00:45:03.981Z,15.24
2017-08-20T00:46:03.994Z,15.23
2017-08-20T00:47:04.007Z,15.21
2017-08-20T00:48:04.021Z,15.13
2017-08-20T00:49:04.034Z,15.21
2017-08-20T00:50:04.049Z,15.26
2017-08-20T00:51:04.061Z,15.27
2017-08-20T00:52:04.074Z,15.24
2017-08-20T00:53:04.088Z,15.26
2017-08-20T00:54:04.112Z,15.24
2017-08-20T00:55:04.119Z,15.28
2017-08-20T00:56:04.126Z,15.24
2017-08-20T00:57:04.140Z,15.30
2017-08-20T00:58:04.154Z,15.26
2017-08-20T00:59:04.168Z,15.23
2017-08-20T01:00:04.180Z,15.21
2017-08-20T01:01:04.194Z,15.20
2017-08-20T01:02:04.205Z,15.20
2017-08-20T01:03:04.221Z,15.11
2017-08-20T01:04:04.232Z,15.17
2017-08-20T01:05:04.248Z,15.17
2017-08-20T01:06:04.259Z,15.05
2017-08-20T01:07:04.274Z,15.02
2017-08-20T01:08:04.286Z,15.02
2017-08-20T01:09:04.300Z,15.08
2017-08-20T01:10:04.314Z,15.08
2017-08-20T01:11:04.332Z,15.11
2017-08-20T01:12:04.339Z,15.08
2017-08-20T01:13:04.353Z,15.11
2017-08-20T01:14:04.366Z,15.11
2017-08-20T01:15:04.380Z,15.12
2017-08-20T01:16:04.392Z,15.08
2017-08-20T01:17:04.408Z,15.12
2017-08-20T01:18:04.424Z,15.05
2017-08-20T01:19:04.432Z,15.05
2017-08-20T01:20:04.444Z,15.05
2017-08-20T01:21:04.460Z,15.08
2017-08-20T01:22:04.475Z,15.03
2017-08-20T01:23:04.482Z,15.06
2017-08-20T01:24:04.502Z,15.05
2017-08-20T01:25:04.512Z,15.08
2017-08-20T01:26:04.527Z,15.06
2017-08-20T01:27:04.539Z,15.02
2017-08-20T01:28:04.554Z,15.03
2017-08-20T01:29:04.567Z,15.06
2017-08-20T01:30:04.582Z,15.05
2017-08-20T01:31:04.593Z,15.09
2017-08-20T01:32:04.605Z,15.08
2017-08-20T01:33:04.619Z,15.13
2017-08-20T01:34:04.634Z,15.03
2017-08-20T01:35:04.645Z,15.06
2017-08-20T01:36:04.657Z,15.09
2017-08-20T01:37:04.673Z,15.03
2017-08-20T01:38:04.683Z,15.08
2017-08-20T01:39:04.694Z,15.06
2017-08-20T01:40:04.710Z,15.03
2017-08-20T01:41:04.727Z,15.13
2017-08-20T01:42:04.737Z,15.06
2017-08-20T01:43:04.752Z,15.06
2017-08-20T01:44:04.762Z,15.06
2017-08-20T01:45:04.775Z,15.15
2017-08-20T01:46:04.791Z,15.15
2017-08-20T01:47:04.809Z,15.15
2017-08-20T01:48:04.816Z,15.19
2017-08-20T01:49:04.832Z,15.06
2017-08-20T01:50:04.845Z,15.12
2017-08-20T01:51:04.856Z,15.12
2017-08-20T01:52:04.870Z,15.15
2017-08-20T01:53:04.884Z,15.19
2017-08-20T01:54:04.898Z,15.17
2017-08-20T01:55:04.911Z,15.15
2017-08-20T01:56:04.922Z,15.21
2017-08-20T01:57:04.938Z,15.17
2017-08-20T01:58:04.949Z,15.20
2017-08-20T01:59:04.963Z,15.15
2017-08-20T02:00:04.975Z,15.11
2017-08-20T02:01:04.991Z,15.21
2017-08-20T02:02:05.008Z,15.26
2017-08-20T02:03:05.015Z,15.21
2017-08-20T02:04:05.029Z,15.24
2017-08-20T02:05:05.044Z,15.31
2017-08-20T02:06:05.056Z,15.35
2017-08-20T02:07:05.071Z,15.36
2017-08-20T02:08:05.083Z,15.39
2017-08-20T02:09:05.098Z,15.36
2017-08-20T02:10:05.109Z,15.49
2017-08-20T02:11:05.126Z,15.43
2017-08-20T02:12:05.138Z,15.46
2017-08-20T02:13:05.151Z,15.49
2017-08-20T02:14:05.165Z,15.60
2017-08-20T02:15:05.175Z,15.59
2017-08-20T02:16:05.193Z,15.61
2017-08-20T02:17:05.205Z,15.59
2017-08-20T02:18:05.218Z,15.61
2017-08-20T02:19:05.231Z,15.59
2017-08-20T02:20:05.242Z,15.60
2017-08-20T02:21:05.256Z,15.67
2017-08-20T02:22:05.270Z,15.63
2017-08-20T02:23:05.283Z,15.61
2017-08-20T02:24:05.297Z,15.61
2017-08-20T02:25:05.316Z,15.57
2017-08-20T02:26:05.326Z,15.64
2017-08-20T02:27:05.341Z,15.68
2017-08-20T02:28:05.351Z,15.67
2017-08-20T02:29:05.365Z,15.67
2017-08-20T02:30:05.379Z,15.70
2017-08-20T02:31:05.396Z,15.72
2017-08-20T02:32:05.404Z,15.66
2017-08-20T02:33:05.423Z,15.70
2017-08-20T02:34:05.440Z,15.72
2017-08-20T02:35:05.446Z,15.76
2017-08-20T02:36:05.460Z,15.66
2017-08-20T02:37:05.474Z,15.78
2017-08-20T02:38:05.488Z,15.79
2017-08-20T02:39:05.501Z,15.84
2017-08-20T02:40:05.516Z,15.79
2017-08-20T02:41:05.529Z,15.85
2017-08-20T02:42:05.542Z,15.85
2017-08-20T02:43:05.555Z,15.84
2017-08-20T02:44:05.566Z,15.84
2017-08-20T02:45:05.582Z,15.89
2017-08-20T02:46:05.599Z,15.92
2017-08-20T02:47:05.612Z,15.94
2017-08-20T02:48:05.621Z,16.03
2017-08-20T02:49:05.638Z,16.04
2017-08-20T02:50:05.649Z,16.09
2017-08-20T02:51:05.663Z,16.06
2017-08-20T02:52:05.677Z,16.07
2017-08-20T02:53:05.692Z,16.09
2017-08-20T02:54:05.705Z,16.09
2017-08-20T02:55:05.721Z,16.11
2017-08-20T02:56:05.731Z,16.14
2017-08-20T02:57:05.746Z,16.12
2017-08-20T02:58:05.759Z,16.14
2017-08-20T02:59:05.771Z,16.09
2017-08-20T03:00:05.785Z,16.11
2017-08-20T03:01:05.800Z,16.06
2017-08-20T03:02:05.817Z,16.12
2017-08-20T03:03:05.827Z,16.11
2017-08-20T03:04:05.839Z,16.11
2017-08-20T03:05:05.855Z,16.11
2017-08-20T03:06:05.867Z,16.12
2017-08-20T03:07:05.882Z,16.11
2017-08-20T03:08:05.895Z,16.11
2017-08-20T03:09:05.911Z,16.00
2017-08-20T03:10:05.927Z,16.07
2017-08-20T03:11:05.937Z,16.04
2017-08-20T03:12:05.948Z,16.01
2017-08-20T03:13:05.967Z,16.09
2017-08-20T03:14:05.975Z,16.06
2017-08-20T03:15:05.987Z,16.06
2017-08-20T03:16:06.001Z,16.03
2017-08-20T03:17:06.016Z,15.94
2017-08-20T03:18:06.027Z,15.94
2017-08-20T03:19:06.041Z,15.93
2017-08-20T03:20:06.053Z,15.96
2017-08-20T03:21:06.069Z,16.07
2017-08-20T03:22:06.082Z,15.96
2017-08-20T03:23:06.094Z,16.11
2017-08-20T03:24:06.106Z,15.99
2017-08-20T03:25:06.122Z,16.04
2017-08-20T03:26:06.138Z,16.06
2017-08-20T03:27:06.147Z,16.07
2017-08-20T03:28:06.160Z,16.06
2017-08-20T03:29:06.175Z,16.11
2017-08-20T03:30:06.188Z,16.00
2017-08-20T03:31:06.209Z,16.09
2017-08-20T03:32:06.212Z,16.11
2017-08-20T03:33:06.227Z,16.00
2017-08-20T03:34:06.240Z,16.06
2017-08-20T03:35:06.256Z,16.04
2017-08-20T03:36:06.266Z,16.04
2017-08-20T03:37:06.283Z,16.07
2017-08-20T03:38:06.294Z,16.07
2017-08-20T03:39:06.308Z,16.11
2017-08-20T03:40:06.322Z,16.16
2017-08-20T03:41:06.335Z,16.12
2017-08-20T03:42:06.348Z,16.07
2017-08-20T03:43:06.362Z,16.20
2017-08-20T03:44:06.376Z,16.15
2017-08-20T03:45:06.389Z,16.23
2017-08-20T03:46:06.402Z,16.15
2017-08-20T03:47:06.415Z,16.18
2017-08-20T03:48:06.428Z,16.15
2017-08-20T03:49:06.443Z,16.14
2017-08-20T03:50:06.456Z,16.09
2017-08-20T03:51:06.470Z,16.15
2017-08-20T03:52:06.484Z,16.09
2017-08-20T03:53:06.498Z,16.11
2017-08-20T03:54:06.509Z,16.11
2017-08-20T03:55:06.526Z,16.09
2017-08-20T03:56:06.537Z,16.07
2017-08-20T03:57:06.553Z,16.00
2017-08-20T03:58:06.566Z,15.99
2017-08-20T03:59:06.578Z,16.00
2017-08-20T04:00:06.592Z,16.04
2017-08-20T04:01:06.608Z,16.12
2017-08-20T04:02:06.618Z,16.09
2017-08-20T04:03:06.632Z,16.06
2017-08-20T04:04:06.645Z,16.03
2017-08-20T04:05:06.678Z,15.99
2017-08-20T04:06:06.672Z,16.07
2017-08-20T04:07:06.684Z,16.07
2017-08-20T04:08:06.697Z,16.06
2017-08-20T04:09:06.713Z,16.09
2017-08-20T04:10:06.728Z,16.09
2017-08-20T04:11:06.739Z,16.11
2017-08-20T04:12:06.752Z,16.15
2017-08-20T04:13:06.767Z,16.23
2017-08-20T04:14:06.784Z,16.22
2017-08-20T04:15:06.797Z,16.23
2017-08-20T04:16:06.806Z,16.20
2017-08-20T04:17:06.821Z,16.31
2017-08-20T04:18:06.834Z,16.31
2017-08-20T04:19:06.849Z,16.23
2017-08-20T04:20:06.860Z,16.34
2017-08-20T04:21:06.880Z,16.27
2017-08-20T04:22:06.888Z,16.40
2017-08-20T04:23:06.902Z,16.38
2017-08-20T04:24:06.915Z,16.42
2017-08-20T04:25:06.932Z,16.40
2017-08-20T04:26:06.944Z,16.48
2017-08-20T04:27:06.956Z,16.50
2017-08-20T04:28:06.972Z,16.56
2017-08-20T04:29:06.985Z,16.53
2017-08-20T04:30:07.005Z,16.53
2017-08-20T04:31:07.012Z,16.53
2017-08-20T04:32:07.026Z,16.55
2017-08-20T04:33:07.043Z,16.60
2017-08-20T04:34:07.053Z,16.59
2017-08-20T04:35:07.070Z,16.65
2017-08-20T04:36:07.080Z,16.75
2017-08-20T04:37:07.095Z,16.75
2017-08-20T04:38:07.110Z,16.78
2017-08-20T04:39:07.123Z,16.74
2017-08-20T04:40:07.135Z,16.80
2017-08-20T04:41:07.152Z,16.68
2017-08-20T04:42:07.166Z,16.77
2017-08-20T04:43:07.178Z,16.83
2017-08-20T04:44:07.193Z,16.74
2017-08-20T04:45:07.205Z,16.83
2017-08-20T04:46:07.220Z,16.81
2017-08-20T04:47:07.235Z,16.89
2017-08-20T04:48:07.249Z,16.85
2017-08-20T04:49:07.262Z,16.89
2017-08-20T04:50:07.275Z,16.96
2017-08-20T04:51:07.291Z,16.92
2017-08-20T04:52:07.301Z,16.92
2017-08-20T04:53:07.316Z,16.98
2017-08-20T04:54:07.331Z,16.98
2017-08-20T04:55:07.347Z,17.03
2017-08-20T04:56:07.362Z,17.03
2017-08-20T04:57:07.376Z,17.08
2017-08-20T04:58:07.396Z,17.07
2017-08-20T04:59:07.403Z,17.10
2017-08-20T05:00:07.415Z,17.14
2017-08-20T05:01:07.431Z,17.15
2017-08-20T05:02:07.441Z,17.17
2017-08-20T05:03:07.463Z,17.22
2017-08-20T05:04:07.472Z,17.29
2017-08-20T05:05:07.486Z,17.30
2017-08-20T05:06:07.501Z,17.30
2017-08-20T05:07:07.514Z,17.30
2017-08-20T05:08:07.529Z,17.32
2017-08-20T05:09:07.544Z,17.32
2017-08-20T05:10:07.557Z,17.32
2017-08-20T05:11:07.570Z,17.32
2017-08-20T05:12:07.586Z,17.36
2017-08-20T05:13:07.599Z,17.33
2017-08-20T05:14:07.612Z,17.30
2017-08-20T05:15:07.627Z,17.35
2017-08-20T05:16:07.642Z,17.41
2017-08-20T05:17:07.656Z,17.38
2017-08-20T05:18:07.670Z,17.36
2017-08-20T05:19:07.684Z,17.46
2017-08-20T05:20:07.697Z,17.50
2017-08-20T05:21:07.715Z,17.53
2017-08-20T05:22:07.726Z,17.55
2017-08-20T05:23:07.743Z,17.57
2017-08-20T05:24:07.754Z,17.71
2017-08-20T05:25:07.771Z,17.71
2017-08-20T05:26:07.783Z,17.70
2017-08-20T05:27:07.798Z,17.74
2017-08-20T05:28:07.815Z,17.79
2017-08-20T05:29:07.828Z,17.85
2017-08-20T05:30:07.841Z,17.89
2017-08-20T05:31:07.856Z,17.85
2017-08-20T05:32:07.869Z,17.88
2017-08-20T05:33:07.885Z,17.91
2017-08-20T05:34:07.899Z,17.95
2017-08-20T05:35:07.917Z,17.94
2017-08-20T05:36:07.930Z,17.97
2017-08-20T05:37:07.944Z,18.03
2017-08-20T05:38:07.957Z,18.12
2017-08-20T05:39:07.972Z,18.10
2017-08-20T05:40:07.986Z,18.22
2017-08-20T05:41:08.001Z,18.24
2017-08-20T05:42:08.015Z,18.28
2017-08-20T05:43:08.031Z,18.31
2017-08-20T05:44:08.044Z,18.31
2017-08-20T05:45:08.062Z,18.29
2017-08-20T05:46:08.076Z,18.34
2017-08-20T05:47:08.088Z,18.46
2017-08-20T05:48:08.102Z,18.43
2017-08-20T05:49:08.120Z,18.46
2017-08-20T05:50:08.138Z,18.47
2017-08-20T05:51:08.148Z,18.49
2017-08-20T05:52:08.161Z,18.62
2017-08-20T05:53:08.178Z,18.67
2017-08-20T05:54:08.190Z,18.57
2017-08-20T05:55:08.212Z,18.62
2017-08-20T05:56:08.221Z,18.68
2017-08-20T05:57:08.235Z,18.73
2017-08-20T05:58:08.380Z,18.79
2017-08-20T05:59:08.266Z,18.77
2017-08-20T06:00:08.279Z,18.82
2017-08-20T06:01:08.296Z,19.13
2017-08-20T06:02:08.310Z,19.43
2017-08-20T06:03:08.326Z,19.75
2017-08-20T06:04:08.340Z,19.80
2017-08-20T06:05:08.357Z,19.80
2017-08-20T06:06:08.369Z,19.86
2017-08-20T06:07:08.385Z,19.94
2017-08-20T06:08:08.400Z,20.38
2017-08-20T06:09:08.417Z,20.89
2017-08-20T06:10:08.431Z,21.35
2017-08-20T06:11:08.443Z,21.81
2017-08-20T06:12:08.464Z,22.17
2017-08-20T06:13:08.481Z,22.56
2017-08-20T06:14:08.496Z,22.93
2017-08-20T06:15:08.513Z,23.15
2017-08-20T06:16:08.527Z,23.57
2017-08-20T06:17:08.548Z,23.82
2017-08-20T06:18:08.561Z,24.08
2017-08-20T06:19:08.590Z,24.41
2017-08-20T06:20:08.595Z,24.73
2017-08-20T06:21:08.616Z,24.95
2017-08-20T06:22:08.632Z,25.15
2017-08-20T06:23:08.647Z,25.34
2017-08-20T06:24:08.665Z,25.44
2017-08-20T06:25:08.685Z,25.87
2017-08-20T06:26:08.700Z,25.93
2017-08-20T06:27:08.718Z,26.05
2017-08-20T06:28:08.735Z,26.25
2017-08-20T06:29:08.755Z,26.43
2017-08-20T06:30:08.773Z,26.50
2017-08-20T06:31:08.790Z,26.69
2017-08-20T06:32:08.810Z,26.92
2017-08-20T06:33:08.825Z,26.87
2017-08-20T06:34:08.845Z,27.06
2017-08-20T06:35:08.865Z,27.13
2017-08-20T06:36:08.882Z,27.31
2017-08-20T06:37:08.902Z,27.31
2017-08-20T06:38:08.919Z,27.32
2017-08-20T06:39:08.938Z,27.47
2017-08-20T06:40:08.956Z,27.51
2017-08-20T06:41:08.971Z,27.67
2017-08-20T06:42:08.993Z,27.71
2017-08-20T06:43:09.011Z,27.82
2017-08-20T06:44:09.032Z,27.88
2017-08-20T06:45:09.051Z,27.95
2017-08-20T06:46:09.072Z,27.96
2017-08-20T06:47:09.089Z,28.07
2017-08-20T06:48:09.106Z,28.01
2017-08-20T06:49:09.127Z,28.04
2017-08-20T06:50:09.144Z,27.92
2017-08-20T06:51:09.163Z,27.98
2017-08-20T06:52:09.183Z,28.04
2017-08-20T06:53:09.201Z,28.10
2017-08-20T06:54:09.220Z,28.11
2017-08-20T06:55:09.242Z,28.19
2017-08-20T06:56:09.258Z,28.32
2017-08-20T06:57:09.278Z,28.22
2017-08-20T06:58:09.297Z,28.29
2017-08-20T06:59:09.316Z,28.36
2017-08-20T07:00:09.335Z,28.33
2017-08-20T07:01:09.357Z,28.40
2017-08-20T07:02:09.374Z,28.43
2017-08-20T07:03:09.392Z,28.38
2017-08-20T07:04:09.410Z,28.50
2017-08-20T07:05:09.440Z,28.47
2017-08-20T07:06:09.446Z,28.48
2017-08-20T07:07:09.468Z,28.68
2017-08-20T07:08:09.488Z,28.75
2017-08-20T07:09:09.505Z,28.95
2017-08-20T07:10:09.525Z,29.04
2017-08-20T07:11:09.546Z,29.08
2017-08-20T07:12:09.565Z,29.16
2017-08-20T07:13:09.583Z,29.29
2017-08-20T07:14:09.605Z,29.33
2017-08-20T07:15:09.621Z,29.55
2017-08-20T07:16:09.641Z,29.63
2017-08-20T07:17:09.664Z,29.66
2017-08-20T07:18:09.679Z,29.68
2017-08-20T07:19:09.703Z,29.65
2017-08-20T07:20:09.718Z,29.50
2017-08-20T07:21:09.743Z,29.55
2017-08-20T07:22:09.759Z,29.53
2017-08-20T07:23:09.778Z,29.47
2017-08-20T07:24:09.804Z,29.41
2017-08-20T07:25:09.820Z,29.44
2017-08-20T07:26:09.845Z,29.35
2017-08-20T07:27:09.860Z,29.40
2017-08-20T07:28:09.881Z,29.28
2017-08-20T07:29:09.901Z,29.29
2017-08-20T07:30:09.926Z,29.26
2017-08-20T07:31:09.941Z,29.29
2017-08-20T07:32:09.958Z,29.13
2017-08-20T07:33:09.980Z,29.11
2017-08-20T07:34:09.998Z,29.11
2017-08-20T07:35:10.022Z,29.01
2017-08-20T07:36:10.038Z,28.97
2017-08-20T07:37:10.063Z,28.95
2017-08-20T07:38:10.080Z,28.95
2017-08-20T07:39:10.101Z,28.77
2017-08-20T07:40:10.121Z,28.81
2017-08-20T07:41:10.144Z,28.59
2017-08-20T07:42:10.162Z,28.60
2017-08-20T07:43:10.183Z,28.56
2017-08-20T07:44:10.204Z,28.54
2017-08-20T07:45:10.228Z,28.48
2017-08-20T07:46:10.244Z,28.44
2017-08-20T07:47:10.264Z,28.48
2017-08-20T07:48:10.286Z,28.47
2017-08-20T07:49:10.306Z,28.44
2017-08-20T07:50:10.326Z,28.43
2017-08-20T07:51:10.347Z,28.43
2017-08-20T07:52:10.367Z,28.43
2017-08-20T07:53:10.390Z,28.33
2017-08-20T07:54:10.410Z,28.40
2017-08-20T07:55:10.429Z,28.25
2017-08-20T07:56:10.451Z,28.17
2017-08-20T07:57:10.473Z,28.19
2017-08-20T07:58:10.493Z,28.17
2017-08-20T07:59:10.514Z,28.19
2017-08-20T08:00:10.536Z,28.09
2017-08-20T08:01:10.556Z,28.13
2017-08-20T08:02:10.578Z,28.13
2017-08-20T08:03:10.601Z,28.04
2017-08-20T08:04:10.619Z,27.99
2017-08-20T08:05:10.639Z,27.98
2017-08-20T08:06:10.659Z,28.01
2017-08-20T08:07:10.685Z,27.89
2017-08-20T08:08:10.700Z,27.80
2017-08-20T08:09:10.720Z,27.85
2017-08-20T08:10:10.744Z,27.77
2017-08-20T08:11:10.762Z,27.82
2017-08-20T08:12:10.781Z,27.77
2017-08-20T08:13:10.807Z,27.66
2017-08-20T08:14:10.824Z,27.62
2017-08-20T08:15:10.842Z,27.50
2017-08-20T08:16:10.865Z,27.58
2017-08-20T08:17:10.885Z,27.48
2017-08-20T08:18:10.905Z,27.39
2017-08-20T08:19:10.929Z,27.36
2017-08-20T08:20:10.947Z,27.36
2017-08-20T08:21:10.967Z,27.38
2017-08-20T08:22:10.986Z,27.33
2017-08-20T08:23:11.006Z,27.16
2017-08-20T08:24:11.026Z,27.17
2017-08-20T08:25:11.048Z,27.02
2017-08-20T08:26:11.068Z,27.05
2017-08-20T08:27:11.093Z,26.89
2017-08-20T08:28:11.107Z,26.83
2017-08-20T08:29:11.129Z,26.72
2017-08-20T08:30:11.147Z,26.61
2017-08-20T08:31:11.171Z,26.57
2017-08-20T08:32:11.188Z,26.42
2017-08-20T08:33:11.208Z,26.46
2017-08-20T08:34:11.225Z,26.36
2017-08-20T08:35:11.247Z,26.25
2017-08-20T08:36:11.265Z,26.24
2017-08-20T08:37:11.289Z,26.17
2017-08-20T08:38:11.304Z,26.01
2017-08-20T08:39:11.324Z,25.90
2017-08-20T08:40:11.342Z,25.90
2017-08-20T08:41:11.364Z,25.93
2017-08-20T08:42:11.381Z,25.90
2017-08-20T08:43:11.401Z,25.67
2017-08-20T08:44:11.419Z,25.71
2017-08-20T08:45:11.442Z,25.61
2017-08-20T08:46:11.457Z,25.43
2017-08-20T08:47:11.477Z,25.47
2017-08-20T08:48:11.495Z,25.42
2017-08-20T08:49:11.515Z,25.39
2017-08-20T08:50:11.532Z,25.42
2017-08-20T08:51:11.557Z,25.42
2017-08-20T08:52:11.569Z,25.47
2017-08-20T08:53:11.588Z,25.43
2017-08-20T08:54:11.631Z,25.46
2017-08-20T08:55:11.624Z,25.52
2017-08-20T08:56:11.643Z,25.44
2017-08-20T08:57:11.661Z,25.42
2017-08-20T08:58:11.678Z,25.43
2017-08-20T08:59:11.698Z,25.42
2017-08-20T09:00:11.718Z,25.31
2017-08-20T09:01:11.734Z,25.27
2017-08-20T09:02:11.753Z,25.16
2017-08-20T09:03:11.771Z,25.12
2017-08-20T09:04:11.788Z,24.98
2017-08-20T09:05:11.807Z,24.80
2017-08-20T09:06:11.822Z,24.75
2017-08-20T09:07:11.840Z,24.68
2017-08-20T09:08:11.859Z,24.53
2017-08-20T09:09:11.876Z,24.41
2017-08-20T09:10:11.895Z,24.37
2017-08-20T09:11:11.913Z,24.37
2017-08-20T09:12:11.929Z,24.24
2017-08-20T09:13:11.949Z,24.31
2017-08-20T09:14:11.965Z,24.19
2017-08-20T09:15:11.982Z,24.16
2017-08-20T09:16:12.000Z,24.01
2017-08-20T09:17:12.017Z,24.08
2017-08-20T09:18:12.034Z,24.04
2017-08-20T09:19:12.052Z,24.08
2017-08-20T09:20:12.069Z,24.10
2017-08-20T09:21:12.086Z,24.05
2017-08-20T09:22:12.103Z,24.12
2017-08-20T09:23:12.120Z,24.00
2017-08-20T09:24:12.141Z,24.00
2017-08-20T09:25:12.160Z,24.01
2017-08-20T09:26:12.172Z,23.87
2017-08-20T09:27:12.192Z,23.87
2017-08-20T09:28:12.205Z,23.83
2017-08-20T09:29:12.225Z,23.87
2017-08-20T09:30:12.240Z,23.70
2017-08-20T09:31:12.260Z,23.72
2017-08-20T09:32:12.274Z,23.62
2017-08-20T09:33:12.292Z,23.68
2017-08-20T09:34:12.309Z,23.65
2017-08-20T09:35:12.325Z,23.62
2017-08-20T09:36:12.341Z,23.64
2017-08-20T09:37:12.359Z,23.70
2017-08-20T09:38:12.376Z,23.72
2017-08-20T09:39:12.392Z,23.75
2017-08-20T09:40:12.408Z,23.77
2017-08-20T09:41:12.428Z,23.70
2017-08-20T09:42:12.443Z,23.76
2017-08-20T09:43:12.460Z,23.80
2017-08-20T09:44:12.477Z,23.85
2017-08-20T09:45:12.493Z,23.89
2017-08-20T09:46:12.510Z,24.01
2017-08-20T09:47:12.525Z,24.08
2017-08-20T09:48:12.545Z,24.16
2017-08-20T09:49:12.563Z,24.31
2017-08-20T09:50:12.578Z,24.38
2017-08-20T09:51:12.602Z,24.42
2017-08-20T09:52:12.614Z,24.47
2017-08-20T09:53:12.631Z,24.59
2017-08-20T09:54:12.645Z,24.67
2017-08-20T09:55:12.665Z,24.73
2017-08-20T09:56:12.682Z,24.69
2017-08-20T09:57:12.704Z,24.67
2017-08-20T09:58:12.715Z,24.76
2017-08-20T09:59:12.733Z,24.64
2017-08-20T10:00:12.750Z,24.68
2017-08-20T10:01:12.769Z,24.68
2017-08-20T10:02:12.791Z,24.61
2017-08-20T10:03:12.804Z,24.67
2017-08-20T10:04:12.817Z,24.60
2017-08-20T10:05:12.842Z,24.57
2017-08-20T10:06:12.856Z,24.57
2017-08-20T10:07:12.872Z,24.44
2017-08-20T10:08:12.889Z,24.34
2017-08-20T10:09:12.908Z,24.29
2017-08-20T10:10:12.927Z,24.26
2017-08-20T10:11:12.942Z,24.16
2017-08-20T10:12:12.959Z,24.05
2017-08-20T10:13:12.977Z,23.97
2017-08-20T10:14:12.994Z,23.89
2017-08-20T10:15:13.014Z,23.83
2017-08-20T10:16:13.028Z,23.71
2017-08-20T10:17:13.046Z,23.71
2017-08-20T10:18:13.064Z,23.62
2017-08-20T10:19:13.081Z,23.60
2017-08-20T10:20:13.095Z,23.68
2017-08-20T10:21:13.117Z,23.57
2017-08-20T10:22:13.131Z,23.62
2017-08-20T10:23:13.148Z,23.61
2017-08-20T10:24:13.169Z,23.60
2017-08-20T10:25:13.183Z,23.61
2017-08-20T10:26:13.196Z,23.76
2017-08-20T10:27:13.218Z,23.79
2017-08-20T10:28:13.232Z,23.98
2017-08-20T10:29:13.250Z,24.19
2017-08-20T10:30:13.266Z,24.29
2017-08-20T10:31:13.283Z,24.29
2017-08-20T10:32:13.300Z,24.39
2017-08-20T10:33:13.316Z,24.47
2017-08-20T10:34:13.335Z,24.61
2017-08-20T10:35:13.354Z,24.63
2017-08-20T10:36:13.371Z,24.59
2017-08-20T10:37:13.389Z,24.60
2017-08-20T10:38:13.406Z,24.59
2017-08-20T10:39:13.430Z,24.50
2017-08-20T10:40:13.444Z,24.57
2017-08-20T10:41:13.459Z,24.73
2017-08-20T10:42:13.474Z,24.80
2017-08-20T10:43:13.494Z,24.90
2017-08-20T10:44:13.510Z,24.80
2017-08-20T10:45:13.529Z,24.92
2017-08-20T10:46:13.547Z,24.85
2017-08-20T10:47:13.565Z,24.85
2017-08-20T10:48:13.586Z,24.77
2017-08-20T10:49:13.600Z,24.75
2017-08-20T10:50:13.614Z,24.73
2017-08-20T10:51:13.635Z,24.69
2017-08-20T10:52:13.651Z,24.69
2017-08-20T10:53:13.670Z,24.69
2017-08-20T10:54:13.686Z,24.69
2017-08-20T10:55:13.702Z,24.63
2017-08-20T10:56:13.719Z,24.44
2017-08-20T10:57:13.738Z,24.34
2017-08-20T10:58:13.755Z,24.39
2017-08-20T10:59:13.767Z,24.27
2017-08-20T11:00:13.790Z,24.20
2017-08-20T11:01:13.807Z,24.02
2017-08-20T11:02:13.824Z,23.95
2017-08-20T11:03:13.842Z,23.92
2017-08-20T11:04:13.857Z,23.86
2017-08-20T11:05:13.878Z,23.87
2017-08-20T11:06:13.894Z,23.92
2017-08-20T11:07:13.911Z,23.89
2017-08-20T11:08:13.926Z,23.82
2017-08-20T11:09:13.945Z,23.79
2017-08-20T11:10:13.965Z,23.68
2017-08-20T11:11:13.979Z,23.61
2017-08-20T11:12:13.994Z,23.57
2017-08-20T11:13:14.020Z,23.50
2017-08-20T11:14:14.032Z,23.49
2017-08-20T11:15:14.048Z,23.47
2017-08-20T11:16:14.064Z,23.46
2017-08-20T11:17:14.083Z,23.42
2017-08-20T11:18:14.120Z,23.29
2017-08-20T11:19:14.121Z,23.31
2017-08-20T11:20:14.129Z,23.29
2017-08-20T11:21:14.142Z,23.35
2017-08-20T11:22:16.007Z,23.39
2017-08-20T11:23:14.187Z,23.43
2017-08-20T11:24:14.211Z,23.49
2017-08-20T11:25:14.218Z,23.45
2017-08-20T11:26:14.234Z,23.46
2017-08-20T11:27:14.257Z,23.49
2017-08-20T11:28:14.268Z,23.52
2017-08-20T11:29:14.287Z,23.47
2017-08-20T11:30:14.303Z,23.49
2017-08-20T11:31:14.324Z,23.34
2017-08-20T11:32:14.334Z,23.38
2017-08-20T11:33:14.352Z,23.35
2017-08-20T11:34:14.369Z,23.47
2017-08-20T11:35:14.385Z,23.58
2017-08-20T11:36:14.399Z,23.67
2017-08-20T11:37:14.423Z,23.72
2017-08-20T11:38:14.431Z,23.77
2017-08-20T11:39:14.453Z,23.76
2017-08-20T11:40:14.468Z,23.86
2017-08-20T11:41:14.487Z,23.85
2017-08-20T11:42:14.503Z,23.94
2017-08-20T11:43:14.519Z,23.94
2017-08-20T11:44:14.536Z,24.07
2017-08-20T11:45:14.555Z,24.05
2017-08-20T11:46:14.571Z,24.20
2017-08-20T11:47:14.590Z,24.23
2017-08-20T11:48:14.604Z,24.22
2017-08-20T11:49:14.624Z,24.24
2017-08-20T11:50:14.638Z,24.16
2017-08-20T11:51:14.655Z,24.12
2017-08-20T11:52:14.673Z,24.16
2017-08-20T11:53:14.693Z,24.01
2017-08-20T11:54:14.707Z,24.01
2017-08-20T11:55:14.725Z,24.00
2017-08-20T11:56:14.742Z,23.94
2017-08-20T11:57:14.760Z,24.01
2017-08-20T11:58:14.777Z,23.94
2017-08-20T11:59:14.794Z,23.98
2017-08-20T12:00:14.810Z,23.94
2017-08-20T12:01:14.828Z,24.01
2017-08-20T12:02:14.847Z,23.83
2017-08-20T12:03:14.863Z,23.85
2017-08-20T12:04:14.888Z,23.85
2017-08-20T12:05:14.900Z,23.86
2017-08-20T12:06:14.914Z,23.89
2017-08-20T12:07:14.930Z,23.86
2017-08-20T12:08:14.947Z,23.89
2017-08-20T12:09:14.966Z,23.89
2017-08-20T12:10:14.985Z,24.01
2017-08-20T12:11:14.998Z,24.07
2017-08-20T12:12:15.016Z,24.16
2017-08-20T12:13:15.035Z,24.29
2017-08-20T12:14:15.051Z,24.32
2017-08-20T12:15:15.068Z,24.44
2017-08-20T12:16:15.088Z,24.54
2017-08-20T12:17:15.102Z,24.57
2017-08-20T12:18:15.122Z,24.56
2017-08-20T12:19:15.137Z,24.61
2017-08-20T12:20:15.152Z,24.60
2017-08-20T12:21:15.174Z,24.56
2017-08-20T12:22:15.190Z,24.49
2017-08-20T12:23:15.206Z,24.37
2017-08-20T12:24:15.223Z,24.29
2017-08-20T12:25:15.242Z,24.31
2017-08-20T12:26:15.260Z,24.32
2017-08-20T12:27:15.278Z,24.29
2017-08-20T12:28:15.291Z,24.35
2017-08-20T12:29:15.310Z,24.38
2017-08-20T12:30:15.327Z,24.45
2017-08-20T12:31:15.346Z,24.60
2017-08-20T12:32:15.362Z,24.79
2017-08-20T12:33:15.381Z,24.82
2017-08-20T12:34:15.400Z,25.00
2017-08-20T12:35:15.419Z,25.17
2017-08-20T12:36:15.433Z,25.31
2017-08-20T12:37:15.450Z,25.44
2017-08-20T12:38:15.470Z,25.59
2017-08-20T12:39:15.485Z,25.61
2017-08-20T12:40:15.503Z,25.65
2017-08-20T12:41:15.520Z,25.67
2017-08-20T12:42:15.537Z,25.64
2017-08-20T12:43:15.554Z,25.64
2017-08-20T12:44:15.572Z,25.57
2017-08-20T12:45:15.593Z,25.46
2017-08-20T12:46:15.609Z,25.32
2017-08-20T12:47:15.630Z,25.28
2017-08-20T12:48:15.642Z,25.10
2017-08-20T12:49:15.664Z,25.01
2017-08-20T12:50:15.679Z,24.90
2017-08-20T12:51:15.697Z,24.91
2017-08-20T12:52:15.721Z,24.82